Latest Coastal Weather Observations for Cerberus

IDV60701

Issued at 10:02 am EDT Sunday 23 February 2020 (issued every 10 minutes, with the page automatically refreshed every 10 minutes)

About coastal observations | Map of coastal stations | Coastal observations for VIC | Marine services | Other Formats
Station Details ID: 086361 Name: CERBERUS Lat: -38.36 Lon: 145.18 Height: 12.69 m
Data from the previous 72 hours. | See also: Recent months at Cerberus
Date/Time
EDT
Wind Sea
Height
m
Swell Vis
km
Cloud Weather Temp
°C
Press
hPa
Rain since
9am
mm
Dir  Spd
kts
Gust
kts
Height
m
Period
s
Dir
23/10:00am NE 4 7 - - - - - - - 19.3 1020.0 0.0
23/09:30am NNE 3 4 - - - - - - - 18.1 1020.3 0.0
23/09:00am N 1 3 - - - - - - - 16.3 1020.4 0.0
23/08:30am CALM 0 0 - - - - - - - 15.0 1020.2 0.0
23/08:00am CALM 0 0 - - - - - - - 13.3 1020.4 0.0
23/07:30am CALM 0 2 - - - - - - - 11.7 1020.3 0.0
23/07:00am N 2 4 - - - - - - - 11.4 1020.1 0.0
23/06:30am SSW 2 3 - - - - - - - 10.2 1019.6 0.0
23/06:00am CALM 0 2 - - - - - - - 9.5 1019.1 0.0
23/05:30am CALM 0 1 - - - - - - - 10.2 1019.1 0.0
23/05:00am SSW 1 3 - - - - - - - 10.3 1019.2 0.0
23/04:30am CALM 0 0 - - - - - - - 11.3 1019.1 0.0
23/04:00am CALM 0 0 - - - - - - - 11.3 1019.5 0.0
23/03:30am CALM 0 0 - - - - - - - 11.2 1019.6 0.0
23/03:00am CALM 0 0 - - - - - - - 11.5 1019.8 0.0
23/02:30am SSW 1 1 - - - - - - - 12.1 1020.1 0.0
23/02:00am CALM 0 0 - - - - - - - 12.2 1020.2 0.0
23/01:30am CALM 0 0 - - - - - - - 12.2 1020.4 0.0
23/01:00am CALM 0 0 - - - - - - - 13.1 1020.4 0.0
23/12:30am CALM 0 0 - - - - - - - 13.4 1020.6 0.0
23/12:00am CALM 0 0 - - - - - - - 13.9 1020.8 0.0
 
Date/Time
EDT
Wind Sea
Height
m
Swell Vis
km
Cloud Weather Temp
°C
Press
hPa
Rain since
9am
mm
Dir  Spd
kts
Gust
kts
Height
m
Period
s
Dir
22/11:30pm SSW 1 2 - - - - - - - 14.5 1020.9 0.0
22/11:00pm CALM 0 0 - - - - - - - 14.4 1020.8 0.0
22/10:30pm SSW 1 2 - - - - - - - 15.3 1020.9 0.0
22/10:00pm CALM 0 0 - - - - - - - 15.8 1021.0 0.0
22/09:30pm SSW 2 4 - - - - - - - 16.5 1021.0 0.0
22/09:00pm SSW 3 5 - - - - - - - 16.9 1020.7 0.0
22/08:30pm SW 4 7 - - - - - - - 16.9 1020.7 0.0
22/08:00pm SSW 6 9 - - - - - - - 17.2 1020.7 0.0
22/07:30pm SSW 7 11 - - - - - - - 17.8 1020.9 0.0
22/07:00pm S 9 13 - - - - - - - 17.9 1021.0 0.0
22/06:30pm SSW 9 13 - - - - - - - 18.4 1021.1 0.0
22/06:00pm S 9 15 - - - - - - - 18.5 1021.2 0.0
22/05:30pm S 9 14 - - - - - - - 18.7 1021.3 0.0
22/05:00pm S 10 15 - - - - - - - 19.1 1021.6 0.0
22/04:30pm S 10 15 - - - - - - - 19.5 1021.8 0.0
22/04:00pm S 11 18 - - - - - - - 19.0 1022.1 0.0
22/03:30pm SSE 10 15 - - - - - - - 19.9 1022.4 0.0
22/03:00pm S 9 13 - - - - - - - 20.0 1022.7 0.0
22/02:30pm SSE 9 13 - - - - - - - 19.9 1022.7 0.0
22/02:00pm S 10 15 - - - - - - - 19.7 1022.8 0.0
22/01:30pm S 9 14 - - - - - - - 19.4 1022.9 0.0
22/01:00pm S 8 11 - - - - - - - 20.0 1023.1 0.0
22/12:30pm SE 6 17 - - - - - - - 20.3 1023.5 0.0
22/12:00pm E 6 10 - - - - - - - 19.5 1023.8 0.0
22/11:30am SE 6 10 - - - - - - - 19.5 1023.9 0.0
22/11:00am SE 5 9 - - - - - - - 19.2 1023.8 0.0
22/10:30am ESE 6 10 - - - - - - - - 1024.0 0.0
22/10:00am SE 5 9 - - - - - - - 18.4 1023.8 0.0
22/09:30am SE 6 9 - - - - - - - 17.3 1023.7 0.0
22/09:00am ESE 4 7 - - - - - - - 16.4 1023.7 0.0
22/08:30am SE 4 6 - - - - - - - 15.0 1023.4 0.0
22/08:00am SE 1 3 - - - - - - - 11.3 1023.3 0.0
22/07:30am CALM 0 0 - - - - - - - 8.4 1023.0 0.0
22/07:00am CALM 0 0 - - - - - - - 7.7 1022.7 0.0
22/06:30am CALM 0 0 - - - - - - - 8.5 1022.5 0.0
22/06:00am SE 1 1 - - - - - - - 8.7 1022.3 0.0
22/05:30am SE 1 2 - - - - - - - 8.9 1022.3 0.0
22/05:00am SE 1 2 - - - - - - - 8.9 1022.2 0.0
22/04:30am CALM 0 0 - - - - - - - 9.4 1022.1 0.0
22/04:00am CALM 0 0 - - - - - - - 10.2 1022.2 0.0
22/03:30am CALM 0 0 - - - - - - - 10.9 1022.4 0.0
22/03:00am CALM 0 2 - - - - - - - 12.4 1022.6 0.0
22/02:30am SE 3 5 - - - - - - - 13.1 1022.8 0.0
22/02:00am SSE 3 4 - - - - - - - 12.7 1022.9 0.0
22/01:30am SSE 3 3 - - - - - - - 12.0 1023.2 0.0
22/01:00am SE 1 3 - - - - - - - 10.8 1023.4 0.0
22/12:30am SE 2 2 - - - - - - - 11.4 1023.3 0.0
22/12:00am SE 3 3 - - - - - - - 12.3 1023.2 0.0
 
Date/Time
EDT
Wind Sea
Height
m
Swell Vis
km
Cloud Weather Temp
°C
Press
hPa
Rain since
9am
mm
Dir  Spd
kts
Gust
kts
Height
m
Period
s
Dir
21/11:30pm SSE 3 4 - - - - - - - 12.4 1023.1 0.0
21/11:00pm SSE 3 4 - - - - - - - 13.1 1023.1 0.0
21/10:30pm SSE 2 3 - - - - - - - 13.2 1023.1 0.0
21/10:00pm SSE 3 5 - - - - - - - 13.4 1022.8 0.0
21/09:30pm SSE 4 6 - - - - - - - 13.8 1022.5 0.0
21/09:00pm SSE 4 7 - - - - - - - 14.0 1022.3 0.0
21/08:30pm S 5 9 - - - - - - - 14.5 1022.1 0.0
21/08:00pm SSE 5 9 - - - - - - - 14.9 1021.9 0.0
21/07:30pm S 6 11 - - - - - - - 15.6 1021.7 0.0
21/07:00pm S 10 15 - - - - - - - 16.0 1021.4 0.0
21/06:30pm S 8 13 - - - - - - - 16.6 1021.3 0.0
21/06:00pm S 9 14 - - - - - - - 17.6 1021.0 0.0
21/05:30pm S 9 15 - - - - - - - 16.6 1020.8 0.0
21/05:00pm S 8 15 - - - - - - - 17.8 1020.8 0.0
21/04:30pm SSW 10 14 - - - - - - - 18.2 1020.8 0.0
21/04:00pm S 10 15 - - - - - - - 18.1 1020.7 0.0
21/03:30pm SSW 9 14 - - - - - - - 18.6 1020.9 0.0
21/03:00pm SSW 9 14 - - - - - - - 18.1 1021.0 0.0
21/02:30pm SSW 9 12 - - - - - - - 18.2 1021.1 0.0
21/02:00pm SSW 8 15 - - - - - - - 18.2 1021.2 0.0
21/01:30pm S 8 14 - - - - - - - 18.5 1021.1 0.0
21/01:00pm S 7 12 - - - - - - - 17.7 1021.1 0.0
21/12:30pm SSE 7 12 - - - - - - - 16.8 1021.1 0.0
21/12:00pm S 8 12 - - - - - - - 16.9 1021.0 0.0
21/11:30am SSE 6 11 - - - - - - - 17.2 1020.9 0.0
21/11:00am S 8 13 - - - - - - - 16.0 1020.8 0.0
21/10:30am S 10 14 - - - - - - - 15.8 1020.4 0.0
21/10:00am S 5 8 - - - - - - - 16.1 1020.1 0.0
21/09:30am S 8 11 - - - - - - - 15.1 1019.8 0.0
21/09:00am S 7 10 - - - - - - - 15.7 1019.3 1.6
21/08:30am S 8 12 - - - - - - - 16.1 1019.1 1.6
21/08:00am SSW 7 11 - - - - - - - 15.3 1018.6 1.6
21/07:30am SSW 6 10 - - - - - - - 14.4 1018.3 1.6
21/07:00am SSW 4 9 - - - - - - - 13.8 1017.9 1.6
21/06:30am SSW 3 4 - - - - - - - 13.4 1017.5 1.6
21/06:00am S 5 9 - - - - - - Recent precip. 13.3 1017.4 1.6
21/05:30am SW 1 3 - - - - - - - 12.9 1017.2 1.4
21/05:00am W 2 2 - - - - - - - 13.0 1017.2 1.2
21/04:30am W 2 3 - - - - - - - 12.8 1017.0 1.2
21/04:00am WSW 4 6 - - - - - - - 12.9 1017.2 1.2
21/03:30am NW 2 4 - - - - - - - 11.9 1017.3 0.8
21/03:00am NW 2 2 - - - - - - - 11.7 1017.2 0.8
21/02:30am NW 2 3 - - - - - - - 12.4 1017.2 0.8
21/02:00am CALM 0 2 - - - - - - - 13.3 1017.4 0.8
21/01:30am SW 3 6 - - - - - - - 13.4 1017.8 0.8
21/01:00am SW 3 5 - - - - - - - 14.0 1017.7 0.0
21/12:30am W 6 10 - - - - - - - 15.0 1017.9 0.0
21/12:00am SSW 6 10 - - - - - - - 15.3 1017.7 0.0
 
Date/Time
EDT
Wind Sea
Height
m
Swell Vis
km
Cloud Weather Temp
°C
Press
hPa
Rain since
9am
mm
Dir  Spd
kts
Gust
kts
Height
m
Period
s
Dir
20/11:30pm WSW 4 8 - - - - - - - 14.7 1017.8 0.0
20/11:00pm WSW 4 6 - - - - - - - 13.9 1017.9 0.0
20/10:30pm W 4 7 - - - - - - - 13.9 1017.9 0.0
20/10:00pm WSW 5 7 - - - - - - - 14.1 1017.5 0.0
20/09:30pm SW 6 15 - - - - - - - 14.4 1017.3 0.0
20/09:00pm SW 7 12 - - - - - - - 14.8 1017.1 0.0
20/08:30pm WSW 6 10 - - - - - - - 14.7 1016.8 0.0
20/08:00pm SW 10 17 - - - - - - - 15.3 1016.5 0.0
20/07:30pm SW 9 15 - - - - - - - 15.8 1016.0 0.0
20/07:00pm SW 7 11 - - - - - - - 15.9 1015.6 0.0
20/06:30pm SW 8 12 - - - - - - - 16.2 1015.6 0.0
20/06:00pm SSW 7 12 - - - - - - - 16.5 1015.5 0.0
20/05:30pm SW 8 13 - - - - - - - 16.4 1015.5 0.0
20/05:00pm SW 9 15 - - - - - - - 16.6 1015.6 0.0
20/04:30pm SSW 10 15 - - - - - - - 16.8 1015.6 0.0
20/04:00pm SSW 10 14 - - - - - - - 17.0 1015.5 0.0
20/03:30pm SSW 7 11 - - - - - - - 17.7 1015.9 0.0
20/03:00pm SSW 8 12 - - - - - - - 16.8 1016.2 0.0
20/02:30pm SW 8 12 - - - - - - - 17.2 1016.3 0.0
20/02:00pm SW 8 12 - - - - - - - 16.5 1016.4 0.0
20/01:30pm SW 10 15 - - - - - - - 16.7 1016.4 0.0
20/01:00pm SW 10 15 - - - - - - - 16.6 1016.5 0.0
20/12:30pm SW 10 14 - - - - - - - 16.1 1016.7 0.0
20/12:00pm SW 10 15 - - - - - - - 16.2 1016.5 0.0
20/11:30am SSW 10 15 - - - - - - - 15.9 1016.3 0.0
20/11:00am SW 8 16 - - - - - - - 15.1 1016.2 0.0
20/10:30am SSW 7 11 - - - - - - - 15.7 1015.9 0.0

Other formats

Comma delimited format used in spreadsheet applications
http://www.bom.gov.au/fwo/IDV60701/IDV60701.94898.axf

JavaScript Object Notation format (JSON) in row-major order
http://www.bom.gov.au/fwo/IDV60701/IDV60701.94898.json

Data quality

Most of these data are generated automatically and are frequently updated. Quality checks on data are not normally performed. It is possible for incorrect values to appear. Refer to information at About Latest Weather Observations and please check the disclaimer before using these data.